createdAt,value
2023-02-15T00:01:07.707Z,8.88
2023-02-15T00:03:36.554Z,8.20
2023-02-15T00:06:06.629Z,7.93
2023-02-15T00:08:35.316Z,6.07
2023-02-15T00:11:07.933Z,4.70
2023-02-15T00:13:37.137Z,4.85
2023-02-15T00:16:06.152Z,6.10
2023-02-15T00:18:35.094Z,6.90
2023-02-15T00:21:07.741Z,7.60
2023-02-15T00:23:36.720Z,7.13
2023-02-15T00:26:09.175Z,5.57
2023-02-15T00:28:37.769Z,5.60
2023-02-15T00:31:07.563Z,5.88
2023-02-15T00:33:37.920Z,5.13
2023-02-15T00:36:08.747Z,4.03
2023-02-15T00:38:37.826Z,8.02
2023-02-15T00:41:07.861Z,5.47
2023-02-15T00:43:36.637Z,8.60
2023-02-15T00:46:06.379Z,4.57
2023-02-15T00:48:35.231Z,6.35
2023-02-15T00:51:04.131Z,6.65
2023-02-15T00:53:34.102Z,4.32
2023-02-15T00:56:03.069Z,5.60
2023-02-15T00:58:32.381Z,6.35
2023-02-15T01:01:05.843Z,4.07
2023-02-15T01:03:34.480Z,7.10
2023-02-15T01:06:04.786Z,6.20
2023-02-15T01:08:34.799Z,5.53
2023-02-15T01:11:06.262Z,5.65
2023-02-15T01:13:34.979Z,6.63
2023-02-15T01:16:04.181Z,9.68
2023-02-15T01:18:33.238Z,4.72
2023-02-15T01:21:01.953Z,5.35
2023-02-15T01:23:30.570Z,4.78
2023-02-15T01:26:04.320Z,4.60
2023-02-15T01:28:33.691Z,6.65
2023-02-15T01:31:07.168Z,4.68
2023-02-15T01:33:36.225Z,5.22
2023-02-15T01:36:05.443Z,5.75
2023-02-15T01:38:34.533Z,4.93
2023-02-15T01:41:24.205Z,5.78
2023-02-15T01:43:54.069Z,7.78
2023-02-15T01:46:25.322Z,5.82
2023-02-15T01:48:56.121Z,7.57
2023-02-15T01:51:26.616Z,8.32
2023-02-15T01:53:56.914Z,4.82
2023-02-15T01:56:30.040Z,6.45
2023-02-15T01:58:59.941Z,5.40
2023-02-15T02:01:29.137Z,4.88
2023-02-15T02:04:02.708Z,7.63
2023-02-15T02:06:32.854Z,6.80
2023-02-15T02:09:03.975Z,6.75
2023-02-15T02:11:34.304Z,5.50
2023-02-15T02:14:03.016Z,7.63
2023-02-15T02:16:36.055Z,7.57
2023-02-15T02:19:14.276Z,6.38
2023-02-15T02:21:58.001Z,5.18
2023-02-15T02:24:37.295Z,8.10
2023-02-15T02:27:20.558Z,7.40
2023-02-15T02:30:13.316Z,7.22
2023-02-15T02:32:57.012Z,5.22
2023-02-15T02:35:32.020Z,5.72
2023-02-15T02:38:06.678Z,4.95
2023-02-15T02:40:38.825Z,6.13
2023-02-15T02:43:12.097Z,12.23
2023-02-15T02:45:44.381Z,5.15
2023-02-15T02:48:15.413Z,7.38
2023-02-15T02:50:45.554Z,7.03
2023-02-15T02:53:14.290Z,6.35
2023-02-15T02:55:44.824Z,10.02
2023-02-15T02:58:17.246Z,6.25
2023-02-15T03:00:48.002Z,6.22
2023-02-15T03:03:19.380Z,7.95
2023-02-15T03:05:50.543Z,7.00
2023-02-15T03:08:22.990Z,8.73
2023-02-15T03:10:54.342Z,8.23
2023-02-15T03:13:23.099Z,7.88
2023-02-15T03:16:10.387Z,7.53
2023-02-15T03:18:41.025Z,6.15
2023-02-15T03:21:22.959Z,6.88
2023-02-15T03:23:55.685Z,8.20
2023-02-15T03:26:26.273Z,6.60
2023-02-15T03:28:56.688Z,8.77
2023-02-15T03:31:27.991Z,7.93
2023-02-15T03:33:58.233Z,8.73
2023-02-15T03:36:31.932Z,9.05
2023-02-15T03:39:02.630Z,7.25
2023-02-15T03:41:35.322Z,7.80
2023-02-15T03:44:07.401Z,7.78
2023-02-15T03:46:37.705Z,7.95
2023-02-15T03:49:08.157Z,9.57
2023-02-15T03:51:39.650Z,7.18
2023-02-15T03:54:10.252Z,8.55
2023-02-15T03:56:40.225Z,8.85
2023-02-15T03:59:26.913Z,8.70
2023-02-15T04:02:06.710Z,8.93
2023-02-15T04:04:36.913Z,8.65
2023-02-15T04:07:08.148Z,8.48
2023-02-15T04:09:54.465Z,7.63
2023-02-15T04:12:23.467Z,9.30
2023-02-15T04:15:09.512Z,7.43
2023-02-15T04:17:39.318Z,9.27
2023-02-15T04:20:26.181Z,11.07
2023-02-15T04:23:13.565Z,10.30
2023-02-15T04:25:42.249Z,8.63
2023-02-15T04:28:11.872Z,9.40
2023-02-15T04:30:40.474Z,8.48
2023-02-15T04:33:09.142Z,8.77
2023-02-15T04:35:37.821Z,9.55
2023-02-15T04:38:07.847Z,9.68
2023-02-15T04:40:36.476Z,11.10
2023-02-15T04:43:05.107Z,10.05
2023-02-15T04:45:33.765Z,8.73
2023-02-15T04:48:02.530Z,7.82
2023-02-15T04:50:31.268Z,8.68
2023-02-15T04:52:59.877Z,11.38
2023-02-15T04:55:29.911Z,12.05
2023-02-15T04:57:58.847Z,11.48
2023-02-15T05:00:28.495Z,11.30
2023-02-15T05:02:57.221Z,9.80
2023-02-15T05:05:25.971Z,9.80
2023-02-15T05:07:54.844Z,9.77
2023-02-15T05:10:23.481Z,9.23
2023-02-15T05:12:53.429Z,9.63
2023-02-15T05:15:22.089Z,10.60
2023-02-15T05:17:50.873Z,9.90
2023-02-15T05:20:20.247Z,10.27
2023-02-15T05:22:48.943Z,11.43
2023-02-15T05:25:35.407Z,11.45
2023-02-15T05:28:23.886Z,10.75
2023-02-15T05:30:53.487Z,10.10
2023-02-15T05:33:22.851Z,12.98
2023-02-15T05:35:52.260Z,11.50
2023-02-15T05:38:20.933Z,9.80
2023-02-15T05:40:50.254Z,10.95
2023-02-15T05:43:20.584Z,14.23
2023-02-15T05:45:49.454Z,11.27
2023-02-15T05:48:18.185Z,14.13
2023-02-15T05:50:47.134Z,13.90
2023-02-15T05:53:15.857Z,11.02
2023-02-15T05:55:44.542Z,11.15
2023-02-15T05:58:13.540Z,11.10
2023-02-15T06:00:43.608Z,12.77
2023-02-15T06:03:12.427Z,10.98
2023-02-15T06:05:41.127Z,11.07
2023-02-15T06:08:09.724Z,11.35
2023-02-15T06:10:38.441Z,16.02
2023-02-15T06:13:07.230Z,10.52
2023-02-15T06:15:36.162Z,11.70
2023-02-15T06:18:06.259Z,13.38
2023-02-15T06:20:34.974Z,13.50
2023-02-15T06:23:03.732Z,11.15
2023-02-15T06:25:32.773Z,11.48
2023-02-15T06:28:02.053Z,12.88
2023-02-15T06:30:31.020Z,15.07
2023-02-15T06:32:59.979Z,13.10
2023-02-15T06:35:30.193Z,13.25
2023-02-15T06:37:58.894Z,10.80
2023-02-15T06:40:27.570Z,11.23
2023-02-15T06:42:56.253Z,13.20
2023-02-15T06:45:25.187Z,12.63
2023-02-15T06:47:53.818Z,12.80
2023-02-15T06:50:22.618Z,10.73
2023-02-15T06:52:52.725Z,11.73
2023-02-15T06:55:21.517Z,12.98
2023-02-15T06:57:51.114Z,13.02
2023-02-15T07:00:20.387Z,9.95
2023-02-15T07:02:49.212Z,12.13
2023-02-15T07:05:18.008Z,10.13
2023-02-15T07:07:46.822Z,10.48
2023-02-15T07:10:16.906Z,11.00
2023-02-15T07:12:45.390Z,12.27
2023-02-15T07:15:14.995Z,10.38
2023-02-15T07:17:43.795Z,10.45
2023-02-15T07:20:13.843Z,9.63
2023-02-15T07:22:42.668Z,10.63
2023-02-15T07:25:12.708Z,11.23
2023-02-15T07:27:42.981Z,10.77
2023-02-15T07:30:13.043Z,11.05
2023-02-15T07:33:04.743Z,9.02
2023-02-15T07:35:33.912Z,11.90
2023-02-15T07:38:02.559Z,9.38
2023-02-15T07:40:31.294Z,8.75
2023-02-15T07:43:01.807Z,8.98
2023-02-15T07:45:30.636Z,10.02
2023-02-15T07:47:59.229Z,10.00
2023-02-15T07:50:27.847Z,10.20
2023-02-15T07:52:56.515Z,8.35
2023-02-15T07:55:25.732Z,8.27
2023-02-15T07:57:55.073Z,11.38
2023-02-15T08:00:25.956Z,7.82
2023-02-15T08:03:09.431Z,8.73
2023-02-15T08:05:38.248Z,9.65
2023-02-15T08:08:07.323Z,9.48
2023-02-15T08:10:53.778Z,8.50
2023-02-15T08:13:22.623Z,7.10
2023-02-15T08:15:53.453Z,7.47
2023-02-15T08:18:22.083Z,11.20
2023-02-15T08:20:52.341Z,7.78
2023-02-15T08:23:21.074Z,6.80
2023-02-15T08:25:49.797Z,7.90
2023-02-15T08:28:18.656Z,7.38
2023-02-15T08:30:47.912Z,9.27
2023-02-15T08:33:18.954Z,9.13
2023-02-15T08:35:47.984Z,8.77
2023-02-15T08:38:17.041Z,9.40
2023-02-15T08:40:45.771Z,8.38
2023-02-15T08:43:14.482Z,8.57
2023-02-15T08:45:43.200Z,8.68
2023-02-15T08:48:11.870Z,7.63
2023-02-15T08:50:41.942Z,7.15
2023-02-15T08:53:10.625Z,7.88
2023-02-15T08:55:40.959Z,7.20
2023-02-15T08:58:09.580Z,7.88
2023-02-15T09:00:38.294Z,8.20
2023-02-15T09:03:07.032Z,6.43
2023-02-15T09:05:35.736Z,6.90
2023-02-15T09:08:05.813Z,8.00
2023-02-15T09:10:34.647Z,7.03
2023-02-15T09:13:03.431Z,8.07
2023-02-15T09:15:32.024Z,6.50
2023-02-15T09:18:03.730Z,6.45
2023-02-15T09:20:32.535Z,7.47
2023-02-15T09:23:01.181Z,6.95
2023-02-15T09:25:31.409Z,8.02
2023-02-15T09:28:00.181Z,7.45
2023-02-15T09:30:28.984Z,10.90
2023-02-15T09:32:57.658Z,6.57
2023-02-15T09:35:26.570Z,8.00
2023-02-15T09:37:55.196Z,8.82
2023-02-15T09:40:24.049Z,8.32
2023-02-15T09:43:08.415Z,7.45
2023-02-15T09:45:49.011Z,5.97
2023-02-15T09:48:33.776Z,6.55
2023-02-15T09:51:08.727Z,6.18
2023-02-15T09:53:48.447Z,6.13
2023-02-15T09:56:20.178Z,6.38
2023-02-15T09:58:56.508Z,6.15
2023-02-15T10:01:29.358Z,7.78
2023-02-15T10:04:07.135Z,7.60
2023-02-15T10:06:42.685Z,7.20
2023-02-15T10:09:19.726Z,6.30
2023-02-15T10:11:55.610Z,5.97
2023-02-15T10:14:38.956Z,6.20
2023-02-15T10:17:14.075Z,5.63
2023-02-15T10:19:45.512Z,6.68
2023-02-15T10:22:23.222Z,7.82
2023-02-15T10:25:00.191Z,6.85
2023-02-15T10:27:32.089Z,6.85
2023-02-15T10:30:10.366Z,7.93
2023-02-15T10:32:43.558Z,6.85
2023-02-15T10:35:18.846Z,7.07
2023-02-15T10:37:54.576Z,7.65
2023-02-15T10:40:27.557Z,7.53
2023-02-15T10:43:05.412Z,7.70
2023-02-15T10:45:42.997Z,7.18
2023-02-15T10:48:29.587Z,9.93
2023-02-15T10:50:59.898Z,6.88
2023-02-15T10:53:46.500Z,9.05
2023-02-15T10:56:21.453Z,6.25
2023-02-15T10:58:59.586Z,7.95
2023-02-15T11:01:33.774Z,6.88
2023-02-15T11:04:23.233Z,6.90
2023-02-15T11:06:53.598Z,9.07
2023-02-15T11:09:24.338Z,7.80
2023-02-15T11:11:54.318Z,9.75
2023-02-15T11:14:25.490Z,10.05
2023-02-15T11:16:58.002Z,8.63
2023-02-15T11:19:29.224Z,10.00
2023-02-15T11:22:00.210Z,8.40
2023-02-15T11:24:29.707Z,8.57
2023-02-15T11:27:00.500Z,9.10
2023-02-15T11:29:32.578Z,8.32
2023-02-15T11:32:04.782Z,9.18
2023-02-15T11:34:36.547Z,8.55
2023-02-15T11:37:08.474Z,8.73
2023-02-15T11:39:38.455Z,8.80
2023-02-15T11:42:09.647Z,8.45
2023-02-15T11:44:40.460Z,8.00
2023-02-15T11:47:13.376Z,10.52
2023-02-15T11:49:42.152Z,7.53
2023-02-15T11:52:17.463Z,8.40
2023-02-15T11:54:49.598Z,10.23
2023-02-15T11:57:22.356Z,8.98
2023-02-15T11:59:55.427Z,8.52
2023-02-15T12:02:28.601Z,7.47
2023-02-15T12:04:59.599Z,8.43
2023-02-15T12:07:30.503Z,9.13
2023-02-15T12:10:05.225Z,8.73
2023-02-15T12:12:35.178Z,9.15
2023-02-15T12:15:05.113Z,7.90
2023-02-15T12:17:36.321Z,8.68
2023-02-15T12:20:06.316Z,11.38
2023-02-15T12:22:37.181Z,9.75
2023-02-15T12:25:08.124Z,9.75
2023-02-15T12:27:38.164Z,9.32
2023-02-15T12:30:09.556Z,7.60
2023-02-15T12:32:50.291Z,10.48
2023-02-15T12:35:30.447Z,10.57
2023-02-15T12:38:00.424Z,8.07
2023-02-15T12:40:31.488Z,9.98
2023-02-15T12:43:00.304Z,12.00
2023-02-15T12:45:29.867Z,9.32
2023-02-15T12:48:12.760Z,8.68
2023-02-15T12:50:42.263Z,9.05
2023-02-15T12:53:15.987Z,10.10
2023-02-15T12:55:52.886Z,11.85
2023-02-15T12:58:23.999Z,9.75
2023-02-15T13:01:04.817Z,11.10
2023-02-15T13:03:35.358Z,10.68
2023-02-15T13:06:08.267Z,9.80
2023-02-15T13:08:38.765Z,10.00
2023-02-15T13:11:11.001Z,11.02
2023-02-15T13:13:48.686Z,9.63
2023-02-15T13:16:18.147Z,8.95
2023-02-15T13:18:49.759Z,10.25
2023-02-15T13:21:20.628Z,9.35
2023-02-15T13:23:50.637Z,11.30
2023-02-15T13:26:21.621Z,11.30
2023-02-15T13:28:51.846Z,9.45
2023-02-15T13:31:21.330Z,11.68
2023-02-15T13:33:53.636Z,9.27
2023-02-15T13:36:26.727Z,11.45
2023-02-15T13:39:00.946Z,14.50
2023-02-15T13:41:36.292Z,8.93
2023-02-15T13:44:11.350Z,10.57
2023-02-15T13:46:51.797Z,9.55
2023-02-15T13:49:28.190Z,10.98
2023-02-15T13:51:59.685Z,9.43
2023-02-15T13:54:36.422Z,10.85
2023-02-15T13:57:17.540Z,10.65
2023-02-15T13:59:54.587Z,10.55
2023-02-15T14:02:51.265Z,10.93
2023-02-15T14:05:31.440Z,11.32
2023-02-15T14:08:08.576Z,10.88
2023-02-15T14:10:46.140Z,9.63
2023-02-15T14:13:33.551Z,8.80
2023-02-15T14:16:06.143Z,25.58
2023-02-15T14:18:38.842Z,11.75
2023-02-15T14:21:12.589Z,11.90
2023-02-15T14:23:47.086Z,8.88
2023-02-15T14:26:22.211Z,11.82
2023-02-15T14:28:54.444Z,9.75
2023-02-15T14:31:29.462Z,10.30
2023-02-15T14:34:00.049Z,8.27
2023-02-15T14:36:31.324Z,8.98
2023-02-15T14:39:06.753Z,8.50
2023-02-15T14:41:39.489Z,9.57
2023-02-15T14:44:11.548Z,10.82
2023-02-15T14:46:44.285Z,8.35
2023-02-15T14:49:14.294Z,9.20
2023-02-15T14:52:00.624Z,8.90
2023-02-15T14:54:47.792Z,9.88
2023-02-15T14:57:43.590Z,7.80
2023-02-15T15:00:33.861Z,8.10
2023-02-15T15:03:02.983Z,9.88
2023-02-15T15:05:35.351Z,7.82
2023-02-15T15:08:06.579Z,7.43
2023-02-15T15:10:38.537Z,8.52
2023-02-15T15:13:25.739Z,6.72
2023-02-15T15:15:56.206Z,8.48
2023-02-15T15:18:39.676Z,9.63
2023-02-15T15:21:10.080Z,8.13
2023-02-15T15:23:47.914Z,10.10
2023-02-15T15:26:37.926Z,9.77
2023-02-15T15:29:06.761Z,9.98
2023-02-15T15:31:42.382Z,6.97
2023-02-15T15:34:37.688Z,9.05
2023-02-15T15:37:27.232Z,9.55
2023-02-15T15:40:22.571Z,8.43
2023-02-15T15:42:54.190Z,9.93
2023-02-15T15:45:37.794Z,7.63
2023-02-15T15:48:18.895Z,10.95
2023-02-15T15:50:49.562Z,8.65
2023-02-15T15:53:21.340Z,8.00
2023-02-15T15:55:50.742Z,7.93
2023-02-15T15:58:21.938Z,7.15
2023-02-15T16:00:52.150Z,9.23
2023-02-15T16:03:23.806Z,7.13
2023-02-15T16:05:56.187Z,9.95
2023-02-15T16:08:29.384Z,6.70
2023-02-15T16:10:58.460Z,6.72
2023-02-15T16:13:28.837Z,7.25
2023-02-15T16:15:58.173Z,9.70
2023-02-15T16:18:29.468Z,6.30
2023-02-15T16:20:59.228Z,6.72
2023-02-15T16:23:44.592Z,9.43
2023-02-15T16:26:16.246Z,10.10
2023-02-15T16:28:52.664Z,7.88
2023-02-15T16:31:23.393Z,9.48
2023-02-15T16:33:55.490Z,8.30
2023-02-15T16:36:25.111Z,8.43
2023-02-15T16:39:09.731Z,6.53
2023-02-15T16:41:39.773Z,9.27
2023-02-15T16:44:13.562Z,7.82
2023-02-15T16:46:43.825Z,8.98
2023-02-15T16:49:18.221Z,7.30
2023-02-15T16:51:47.434Z,8.07
2023-02-15T16:54:19.788Z,8.30
2023-02-15T16:56:48.525Z,7.13
2023-02-15T16:59:26.271Z,7.43
2023-02-15T17:01:54.958Z,6.80
2023-02-15T17:04:31.384Z,7.18
2023-02-15T17:07:05.798Z,8.23
2023-02-15T17:09:35.083Z,9.05
2023-02-15T17:12:04.206Z,8.52
2023-02-15T17:14:34.948Z,8.82
2023-02-15T17:17:05.054Z,7.50
2023-02-15T17:19:34.886Z,6.90
2023-02-15T17:22:06.168Z,7.13
2023-02-15T17:24:37.842Z,6.20
2023-02-15T17:27:09.332Z,5.93
2023-02-15T17:29:41.209Z,9.65
2023-02-15T17:32:16.162Z,7.18
2023-02-15T17:34:46.071Z,6.30
2023-02-15T17:37:15.826Z,7.10
2023-02-15T17:39:44.704Z,7.50
2023-02-15T17:42:13.570Z,7.22
2023-02-15T17:44:54.853Z,8.07
2023-02-15T17:47:25.824Z,7.85
2023-02-15T17:49:55.547Z,7.28
2023-02-15T17:52:24.345Z,6.38
2023-02-15T17:55:10.706Z,7.18
2023-02-15T17:57:39.786Z,6.07
2023-02-15T18:00:33.665Z,7.70
2023-02-15T18:03:19.837Z,7.85
2023-02-15T18:06:06.368Z,7.95
2023-02-15T18:08:52.852Z,7.10
2023-02-15T18:11:39.974Z,8.27
2023-02-15T18:14:09.239Z,8.77
2023-02-15T18:16:41.730Z,7.55
2023-02-15T18:19:14.095Z,8.02
2023-02-15T18:21:42.755Z,8.95
2023-02-15T18:24:16.263Z,7.82
2023-02-15T18:26:45.038Z,7.28
2023-02-15T18:29:13.758Z,7.85
2023-02-15T18:31:44.561Z,8.65
2023-02-15T18:34:23.355Z,11.05
2023-02-15T18:36:52.135Z,9.23
2023-02-15T18:39:28.577Z,10.25
2023-02-15T18:41:57.425Z,10.25
2023-02-15T18:44:26.132Z,11.40
2023-02-15T18:46:56.275Z,11.95
2023-02-15T18:49:24.981Z,10.20
2023-02-15T18:51:54.791Z,11.85
2023-02-15T18:54:25.335Z,13.07
2023-02-15T18:56:55.713Z,11.75
2023-02-15T18:59:24.848Z,12.65
2023-02-15T19:01:53.590Z,12.05
2023-02-15T19:04:25.712Z,11.38
2023-02-15T19:07:04.144Z,12.02
2023-02-15T19:09:33.755Z,11.70
2023-02-15T19:12:02.419Z,12.27
2023-02-15T19:14:56.727Z,15.77
2023-02-15T19:17:26.747Z,14.32
2023-02-15T19:19:56.850Z,12.43
2023-02-15T19:22:27.585Z,14.05
2023-02-15T19:24:57.659Z,15.00
2023-02-15T19:27:28.342Z,15.95
2023-02-15T19:29:57.386Z,15.75
2023-02-15T19:32:26.174Z,13.80
2023-02-15T19:34:54.998Z,12.43
2023-02-15T19:37:27.653Z,13.18
2023-02-15T19:39:56.489Z,15.65
2023-02-15T19:42:48.782Z,14.48
2023-02-15T19:45:27.990Z,16.13
2023-02-15T19:47:56.637Z,14.32
2023-02-15T19:50:26.454Z,18.38
2023-02-15T19:52:57.721Z,14.25
2023-02-15T19:55:27.183Z,13.60
2023-02-15T19:57:56.902Z,15.13
2023-02-15T20:00:27.245Z,14.73
2023-02-15T20:02:56.753Z,15.73
2023-02-15T20:05:25.878Z,16.08
2023-02-15T20:07:56.057Z,12.80
2023-02-15T20:10:25.953Z,16.00
2023-02-15T20:12:55.017Z,16.95
2023-02-15T20:15:25.086Z,14.68
2023-02-15T20:17:53.753Z,15.20
2023-02-15T20:20:22.874Z,14.65
2023-02-15T20:22:52.810Z,14.73
2023-02-15T20:25:24.114Z,15.55
2023-02-15T20:27:53.126Z,16.23
2023-02-15T20:30:22.912Z,16.08
2023-02-15T20:32:51.995Z,15.27
2023-02-15T20:35:21.398Z,14.85
2023-02-15T20:37:52.248Z,15.38
2023-02-15T20:40:22.015Z,14.85
2023-02-15T20:42:52.126Z,14.43
2023-02-15T20:45:22.423Z,14.82
2023-02-15T20:47:51.796Z,13.38
2023-02-15T20:50:21.918Z,13.95
2023-02-15T20:52:51.958Z,12.40
2023-02-15T20:55:21.901Z,15.60
2023-02-15T20:57:52.325Z,11.73
2023-02-15T21:00:21.856Z,11.07
2023-02-15T21:02:51.186Z,12.45
2023-02-15T21:05:21.233Z,13.30
2023-02-15T21:07:50.307Z,13.38
2023-02-15T21:10:19.954Z,11.85
2023-02-15T21:12:49.534Z,18.38
2023-02-15T21:15:30.829Z,13.52
2023-02-15T21:18:00.753Z,12.90
2023-02-15T21:20:30.041Z,11.30
2023-02-15T21:23:01.557Z,12.27
2023-02-15T21:25:31.986Z,12.25
2023-02-15T21:28:00.831Z,11.63
2023-02-15T21:30:31.033Z,11.57
2023-02-15T21:32:59.821Z,12.93
2023-02-15T21:35:30.255Z,12.40
2023-02-15T21:37:58.952Z,12.85
2023-02-15T21:40:28.752Z,11.90
2023-02-15T21:43:15.249Z,13.82
2023-02-15T21:46:11.357Z,12.90
2023-02-15T21:48:39.946Z,13.57
2023-02-15T21:51:26.529Z,13.57
2023-02-15T21:53:55.304Z,14.10
2023-02-15T21:56:24.886Z,14.18
2023-02-15T21:58:53.543Z,13.48
2023-02-15T22:01:25.360Z,13.23
2023-02-15T22:03:54.809Z,15.25
2023-02-15T22:06:24.006Z,13.13
2023-02-15T22:08:52.642Z,14.50
2023-02-15T22:11:23.164Z,15.75
2023-02-15T22:13:52.706Z,14.27
2023-02-15T22:16:22.786Z,13.30
2023-02-15T22:18:52.866Z,12.23
2023-02-15T22:21:22.394Z,14.07
2023-02-15T22:23:51.135Z,14.38
2023-02-15T22:26:22.554Z,15.23
2023-02-15T22:28:51.848Z,16.25
2023-02-15T22:31:22.058Z,15.50
2023-02-15T22:33:51.444Z,15.32
2023-02-15T22:36:25.175Z,15.55
2023-02-15T22:38:54.177Z,15.27
2023-02-15T22:41:24.547Z,17.23
2023-02-15T22:43:53.406Z,16.35
2023-02-15T22:46:24.306Z,18.55
2023-02-15T22:48:53.384Z,15.32
2023-02-15T22:51:24.607Z,17.63
2023-02-15T22:53:53.913Z,15.63
2023-02-15T22:56:26.551Z,17.88
2023-02-15T22:58:57.599Z,16.63
2023-02-15T23:01:28.430Z,13.27
2023-02-15T23:03:57.190Z,14.20
2023-02-15T23:06:27.415Z,16.38
2023-02-15T23:08:57.090Z,16.33
2023-02-15T23:11:25.877Z,17.17
2023-02-15T23:13:54.614Z,14.15
2023-02-15T23:16:23.395Z,16.30
2023-02-15T23:18:52.327Z,15.68
2023-02-15T23:21:23.009Z,18.65
2023-02-15T23:23:53.861Z,15.50
2023-02-15T23:26:23.817Z,16.98
2023-02-15T23:28:53.271Z,15.65
2023-02-15T23:31:23.314Z,16.83
2023-02-15T23:33:52.668Z,16.63
2023-02-15T23:36:28.905Z,16.95
2023-02-15T23:39:20.088Z,16.35
2023-02-15T23:41:47.844Z,15.70
2023-02-15T23:44:16.739Z,18.60
2023-02-15T23:46:46.787Z,15.85
2023-02-15T23:49:16.621Z,16.63
2023-02-15T23:51:46.183Z,15.65
2023-02-15T23:54:16.945Z,15.02
2023-02-15T23:56:47.202Z,13.40
2023-02-15T23:59:18.172Z,12.93
